Latest Coastal Weather Observations for Sydney Airport

IDN60701

Issued at 4:22 am EDT Friday 19 December 2014 (issued every 10 minutes, with the page automatically refreshed every 10 minutes)

About coastal observations | Map of coastal stations | Coastal observations for NSW | Marine services | Other Formats
Station Details ID: 066037 Name: SYDNEY AIRPORT AMO Lat: -33.95 Lon: 151.17 Height: 6.0 m
Data from the previous 72 hours. | See also: Recent months at Sydney Airport
Date/Time
EDT
Temp

°C
Wind Pressure Rain
since 9am
mm
Weather Cloud Vis
km
Sea
Height
m
Swell
Dir
 
Speed
knots
Gust
knots
hPa Trend Height
m
Period
s
Dir
19/03:52am 21.4 WSW 17 37 1007.3 - 0.0 - Mostly clear 10 - - - -
19/03:30am 21.1 W 15 19 1006.7 - 0.0 - - 10 - - - -
19/03:00am 21.1 W 13 15 1006.4 R 0.0 Haze Clear 12 - - - -
19/02:30am 20.9 WNW 6 7 1006.2 - 0.0 - - 10 - - - -
19/01:30am 21.3 WNW 5 6 1005.9 - 0.0 - - 10 - - - -
19/12:30am 22.4 WNW 4 5 1006.1 - 0.0 - - 10 - - - -
 
Date/Time
EDT
Temp

°C
Wind Pressure Rain
since 9am
mm
Weather Cloud Vis
km
Sea
Height
m
Swell
Dir
 
Speed
knots
Gust
knots
hPa Trend Height
m
Period
s
Dir
18/11:30pm 22.4 WSW 4 5 1006.4 - 0.0 - - 10 - - - -
18/11:00pm 22.2 NNE 4 4 1006.3 - 0.0 - - 10 - - - -
18/10:30pm 22.5 ENE 4 4 1006.4 - 0.0 - - 10 - - - -
18/10:00pm 22.5 NNE 5 6 1006.3 - 0.0 - - 10 - - - -
18/09:30pm 23.3 NNE 9 11 1006.0 - 0.0 - - 10 - - - -
18/09:00pm 23.2 NE 8 11 1005.8 R 0.0 Haze Mostly clear 9 - - - -
18/08:30pm 23.4 NE 9 12 1005.4 - 0.0 - - 8 - - - -
18/08:00pm 23.8 NE 12 16 1005.5 - 0.0 - Mostly clear 9 - - - -
18/07:30pm 24.4 NE 13 17 1005.1 - 0.0 - Mostly clear 10 - - - -
18/07:00pm 24.9 NE 15 19 1004.9 - 0.0 - Mostly clear 10 - - - -
18/06:30pm 25.4 NE 13 17 1004.5 - 0.0 - Mostly clear 10 - - - -
18/06:00pm 24.9 ENE 13 17 1004.1 F 0.0 Haze Partly cloudy 14 - - - -
18/05:30pm 25.5 ENE 15 18 1003.9 - 0.0 - Mostly clear 10 - - - -
18/05:00pm 27.1 NE 14 17 1004.0 - 0.0 - Mostly clear 10 - - - -
18/04:30pm 26.1 NE 15 22 1004.2 - 0.0 - Mostly clear 10 - - - -
18/04:00pm 26.0 NE 15 19 1004.8 - 0.0 - Partly cloudy 10 - - - -
18/03:30pm 26.8 ENE 16 20 1005.2 - 0.0 - Mostly clear 10 - - - -
18/03:00pm 25.6 NE 15 19 1005.6 F 0.0 Haze Mostly cloudy 22 - - - -
18/02:30pm 27.0 ENE 14 18 1005.9 - 0.0 - Mostly clear 10 - - - -
18/02:00pm 26.2 ENE 14 18 1006.2 - 0.0 - Mostly clear 10 - - - -
18/01:30pm 24.3 NE 13 17 1006.7 - 0.0 - Mostly clear 10 - - - -
18/01:00pm 24.5 NE 10 16 1006.9 - 0.0 - Mostly clear 10 - - - -
18/12:30pm 23.2 ESE 7 10 1007.8 - 0.0 - Mostly clear 10 - - - -
18/12:00pm 22.3 SSE 7 9 1007.9 F 0.0 Haze Cloudy 22 - - - -
18/11:30am 22.9 SSW 5 6 1008.3 - 0.0 - Mostly clear 10 - - - -
18/11:00am 21.0 WSW 4 7 1008.9 - 0.0 - Mostly clear 10 - - - -
18/10:30am 21.1 WSW 3 5 1009.1 - 0.0 - Mostly clear 10 - - - -
18/10:00am 20.3 E 4 5 1009.6 - 0.0 - Mostly clear 10 - - - -
18/09:30am 19.9 W 3 6 1010.1 - 0.0 Drizzle Mostly clear 10 - - - -
18/09:00am 19.5 WSW 5 7 1010.2 F 0.0 Recent precip. Cloudy 15 - - - -
18/08:30am 19.3 SW 5 7 1010.2 - 0.0 - Mostly clear 10 - - - -
18/08:00am 18.7 W 6 9 1010.7 - 0.0 - Mostly clear 10 - - - -
18/07:30am 19.1 WNW 7 9 1010.3 - 0.0 Drizzle Mostly clear 10 - - - -
18/07:00am 18.8 WSW 5 7 1010.1 - 0.0 - Mostly clear 10 - - - -
18/06:30am 19.2 W 5 10 1009.7 - 0.0 - Mostly clear 10 - - - -
18/06:00am 19.2 SW 2 5 1009.5 F 0.0 Haze Cloudy 20 - - - -
18/05:30am 19.2 SW 3 5 1009.4 - 0.0 - Mostly clear 10 - - - -
18/05:00am 19.4 S 5 5 1009.0 - 0.0 - Mostly cloudy 10 - - - -
18/04:30am 19.3 SSE 5 5 1008.9 - 0.0 - Partly cloudy 10 - - - -
18/04:00am 19.2 SE 6 7 1008.5 - 0.0 - Mostly clear 10 - - - -
18/03:30am 19.0 ESE 4 6 1008.9 - 0.0 - Mostly clear 10 - - - -
18/03:00am 19.1 NNE 7 9 1009.8 F 0.0 Fine Cloudy 25 - - - -
18/02:30am 19.4 NE 7 9 1010.2 - 0.0 - Mostly cloudy 10 - - - -
18/02:00am 19.3 ENE 6 9 1009.9 - 0.0 - Mostly cloudy 10 - - - -
18/01:30am 19.3 NE 6 9 1010.4 - 0.0 - Mostly cloudy 10 - - - -
18/01:00am 19.5 NE 6 8 1010.8 - 0.0 - Mostly cloudy 10 - - - -
18/12:30am 19.5 ENE 4 5 1010.9 - 0.0 - Mostly cloudy 10 - - - -
18/12:00am 19.3 E 5 6 1011.1 F 0.0 Haze Cloudy 22 - - - -
 
Date/Time
EDT
Temp

°C
Wind Pressure Rain
since 9am
mm
Weather Cloud Vis
km
Sea
Height
m
Swell
Dir
 
Speed
knots
Gust
knots
hPa Trend Height
m
Period
s
Dir
17/11:30pm 19.2 NE 7 8 1011.4 - 0.0 - Mostly cloudy 10 - - - -
17/11:00pm 19.1 ESE 6 8 1011.4 - 0.0 - Partly cloudy 10 - - - -
17/10:30pm 19.3 ENE 8 10 1011.5 - 0.0 - Mostly cloudy 10 - - - -
17/10:00pm 19.5 ESE 8 11 1011.5 - 0.0 - Mostly cloudy 10 - - - -
17/09:30pm 19.6 SE 9 10 1011.1 - 0.0 - Partly cloudy 10 - - - -
17/09:00pm 19.7 SE 8 10 1011.0 R 0.0 Haze Cloudy 20 - - - -
17/08:30pm 19.5 SE 9 11 1011.0 - 0.0 - Partly cloudy 10 - - - -
17/08:00pm 19.7 ESE 10 13 1010.6 - 0.0 - Partly cloudy 10 - - - -
17/07:30pm 19.6 SE 11 14 1010.0 - 0.0 - Partly cloudy 10 - - - -
17/07:00pm 19.9 SE 12 15 1009.3 - 0.0 - Partly cloudy 10 - - - -
17/06:30pm 20.0 SE 14 17 1008.7 - 0.0 - Mostly cloudy 10 - - - -
17/06:00pm 20.0 SE 13 16 1008.4 R 0.0 Haze Cloudy 20 - - - -
17/05:30pm 20.3 SE 13 17 1008.1 - 0.0 - Mostly cloudy 10 - - - -
17/05:00pm 20.3 SE 14 17 1008.1 - 0.0 - Mostly cloudy 10 - - - -
17/04:30pm 20.8 SE 14 18 1007.9 - 0.0 - Mostly cloudy 10 - - - -
17/04:00pm 20.7 SE 13 17 1007.9 - 0.0 - Mostly cloudy 10 - - - -
17/03:30pm 21.2 SSE 14 18 1007.9 - 0.0 - Partly cloudy 10 - - - -
17/03:00pm 21.5 SSE 14 19 1008.0 R 0.0 Haze Mostly cloudy 20 - - - -
17/02:30pm 22.3 SSE 13 18 1008.0 - 0.0 - Partly cloudy 10 - - - -
17/02:00pm 21.6 SSE 15 20 1007.9 - 0.0 - Partly cloudy 10 - - - -
17/01:30pm 21.4 SSE 15 19 1007.9 - 0.0 - Mostly clear 10 - - - -
17/01:00pm 21.7 SSE 15 18 1008.0 - 0.0 - Mostly clear 10 - - - -
17/12:30pm 20.7 SSE 14 19 1008.2 - 0.0 - Mostly clear 10 - - - -
17/12:00pm 20.8 S 17 20 1008.1 R 0.0 Haze Mostly cloudy 18 - - - -
17/11:30am 21.0 S 17 21 1007.9 - 0.0 - Partly cloudy 10 - - - -
17/11:00am 21.1 SSE 18 22 1007.6 - 0.0 - Partly cloudy 10 - - - -
17/10:30am 20.6 S 19 24 1007.3 - 0.0 - Partly cloudy 10 - - - -
17/10:00am 20.6 S 20 27 1006.9 - 0.0 - Mostly clear 10 - - - -
17/09:30am 20.4 S 20 26 1006.5 - 0.0 - Partly cloudy 10 - - - -
17/09:00am 20.0 S 19 25 1006.4 R 0.0 Haze Mostly clear 14 - - - -
17/08:30am 20.1 S 21 28 1005.8 - 0.0 - Mostly clear 10 - - - -
17/08:00am 20.1 S 23 29 1005.3 - 0.0 - Mostly clear 10 - - - -
17/07:30am 19.8 S 22 28 1004.4 - 0.0 - Mostly clear 10 - - - -
17/07:00am 19.9 S 27 32 1003.6 - 0.0 - Mostly clear 10 - - - -
17/06:30am 19.3 S 22 30 1002.6 - 0.0 - Mostly clear 8 - - - -
17/06:00am 19.3 S 24 32 1001.9 R 0.0 Haze Partly cloudy 8 - - - -
17/05:30am 19.6 S 27 35 1001.1 - 0.0 - - 8 - - - -
17/05:00am 19.7 SSW 27 36 1000.7 - 0.0 - - 7 - - - -
17/04:55am 19.7 SSW 24 34 1000.4 - 0.0 - - 8 - - - -
17/04:30am 20.0 S 23 31 999.9 - 0.0 - Mostly clear 8 - - - -
17/04:19am 21.0 WNW 11 32 999.6 - 0.0 - Mostly clear 10 - - - -
17/04:17am 21.1 NW 7 28 999.3 - 0.0 - Mostly clear 10 - - - -
17/04:00am 21.3 NNW 5 7 998.1 - 0.0 - - 10 - - - -
17/03:30am 21.3 NW 8 11 998.1 - 0.0 - - 10 - - - -
17/03:00am 20.4 NW 5 6 997.8 R 0.0 Haze Clear 20 - - - -
17/02:30am 20.8 NNW 7 8 997.8 - 0.0 - - 10 - - - -
17/02:00am 21.0 NW 6 7 997.8 - 0.0 - - 10 - - - -
17/01:30am 21.3 NW 5 6 998.0 - 0.0 - - 10 - - - -
17/01:00am 21.2 NW 6 7 998.3 - 0.0 - - 10 - - - -
17/12:30am 21.4 WNW 5 7 998.3 - 0.0 - - 10 - - - -
17/12:00am 21.5 W 4 5 998.2 F 0.0 Haze Clear 15 - - - -
 
Date/Time
EDT
Temp

°C
Wind Pressure Rain
since 9am
mm
Weather Cloud Vis
km
Sea
Height
m
Swell
Dir
 
Speed
knots
Gust
knots
hPa Trend Height
m
Period
s
Dir
16/11:30pm 21.6 NW 1 5 998.4 - 0.0 - - 10 - - - -
16/11:00pm 22.0 NE 6 8 998.4 - 0.0 - - 10 - - - -
16/10:30pm 22.4 NE 4 6 998.5 - 0.0 - - 10 - - - -
16/10:00pm 21.4 ENE 2 3 999.0 - 0.0 - - 10 - - - -
16/09:30pm 22.2 NE 6 7 998.7 - 0.0 - - 10 - - - -
16/09:00pm 23.0 NE 6 7 998.4 R 0.0 Haze Mostly clear 18 - - - -
16/08:30pm 23.5 NNE 9 11 998.3 - 0.0 - - 10 - - - -
16/08:00pm 23.6 NNE 12 16 998.0 - 0.0 - - 10 - - - -
16/07:30pm 23.7 NNE 15 20 997.7 - 0.0 - - 10 - - - -
16/07:00pm 24.0 NNE 20 25 997.3 - 0.0 - - 10 - - - -
16/06:30pm 24.5 NNE 21 29 997.4 - 0.0 - - 10 - - - -
16/06:00pm 24.1 NNE 30 39 996.8 F 0.0 Haze Mostly clear 18 - - - -
16/05:44pm 24.4 NNE 31 39 996.5 - 0.0 - - 10 - - - -
16/05:30pm 25.4 NE 30 38 996.3 - 0.0 - - 10 - - - -
16/05:00pm 24.7 NE 29 41 996.6 - 0.0 - - 10 - - - -
16/04:30pm 25.5 NE 31 41 997.2 - 0.0 - - 10 - - - -
16/04:03pm 24.1 NE 27 37 998.2 - 0.0 - - 10 - - - -
16/04:00pm 24.5 NE 28 37 998.2 - 0.0 - - 10 - - - -
16/03:42pm 24.4 NNE 29 39 998.4 - 0.0 - - 10 - - - -
16/03:30pm 24.5 NE 30 38 998.4 - 0.0 - - 10 - - - -
16/03:10pm 24.5 NE 29 39 999.0 - 0.0 - - 10 - - - -
16/03:00pm 25.4 NE 30 39 999.0 F 0.0 Distant precip. Partly cloudy 25 - - - -
16/02:30pm 25.3 NNE 27 37 1000.4 - 0.0 - - 10 - - - -
16/02:21pm 26.3 NNE 27 37 1000.6 - 0.0 - - 10 - - - -
16/02:00pm 25.0 NNE 27 33 1000.9 - 0.0 - - 10 - - - -
16/01:40pm 25.3 NE 26 37 1001.0 - 0.0 - - 10 - - - -
16/01:30pm 23.9 NE 26 33 1001.0 - 0.0 - - 10 - - - -
16/01:18pm 24.0 NE 23 33 1001.4 - 0.0 - - 10 - - - -
16/01:00pm 24.0 NNE 25 34 1002.2 - 0.0 - - 10 - - - -
16/12:38pm 24.4 NNE 21 31 1002.8 - 0.0 - - 10 - - - -
16/12:30pm 24.1 NNE 21 29 1003.0 - 0.0 - - 10 - - - -
16/12:00pm 23.7 NE 21 27 1003.9 F 0.0 Distant precip. Mostly cloudy 25 - - - -
16/11:30am 23.5 NE 17 22 1004.4 - 0.0 Showers - 10 - - - -
16/11:00am 22.5 NE 15 18 1005.0 - 0.0 - Partly cloudy 10 - - - -
16/10:30am 22.4 NE 12 17 1005.6 - 0.0 - Partly cloudy 10 - - - -
16/10:00am 22.6 NE 18 23 1005.6 - 0.0 - Partly cloudy 10 - - - -
16/09:55am 21.9 ENE 18 21 1005.6 - 0.0 - Partly cloudy 10 - - - -
16/09:30am 21.3 ENE 10 12 1007.6 - 0.0 Showers Mostly clear 10 - - - -
16/09:00am 23.6 NNE 12 18 1007.8 R 0.0 Showers Mostly cloudy 22 - - - -
16/08:30am 23.6 NNE 15 21 1006.6 - 0.0 - - 10 - - - -
16/08:00am 23.5 NNE 17 21 1006.7 - 0.0 - - 10 - - - -
16/07:30am 22.8 NNE 16 20 1006.1 - 0.0 - - 10 - - - -
16/07:00am 21.7 NNE 11 16 1006.6 - 0.0 - - 10 - - - -
16/06:30am 21.9 NNE 13 16 1006.2 - 0.0 - - 10 - - - -
16/06:00am 21.4 NNE 11 14 1006.5 F 0.0 Fine Partly cloudy 25 - - - -
16/05:30am 20.9 NNE 13 19 1006.3 - 0.0 - - 10 - - - -
16/05:00am 20.9 NNE 12 15 1006.8 - 0.0 - - 10 - - - -
16/04:30am 20.7 NNE 13 16 1006.9 - 0.0 - - 10 - - - -

Other Formats:

Comma delimited format used in spreadsheet applications
http://www.bom.gov.au/fwo/IDN60701/IDN60701.94767.axf

JavaScript Object Notation format (JSON) in row-major order
http://www.bom.gov.au/fwo/IDN60701/IDN60701.94767.json